Time;durP1;ratioP1;P1;durP2;ratioP2;P2;SDS_P1;SDS_P2;PMS_P1;PMS_P2;Temp;Humidity;BMP_temperature;BMP_pressure;BME280_temperature;BME280_humidity;BME280_pressure;Samples;Min_cycle;Max_cycle;Signal;HPM_P1;HPM_P2
2022/04/28 00:00:31;;;;;;;24.53;10.53;;;10.60;99.90;;;;;;5093054;28;20211;-66
2022/04/28 00:02:58;;;;;;;29.90;11.73;;;10.60;99.90;;;;;;5093210;28;20207;-67
2022/04/28 00:05:26;;;;;;;36.73;13.97;;;10.60;99.90;;;;;;5092824;28;20208;-67
2022/04/28 00:07:53;;;;;;;43.93;17.07;;;10.60;99.90;;;;;;5093100;28;20204;-67
2022/04/28 00:10:20;;;;;;;53.00;18.10;;;10.60;99.90;;;;;;5092788;28;20209;-67
2022/04/28 00:12:47;;;;;;;59.30;20.07;;;10.60;99.90;;;;;;5092992;28;20224;-67
2022/04/28 00:15:14;;;;;;;63.30;21.57;;;10.60;99.90;;;;;;5092954;28;20204;-67
2022/04/28 00:17:41;;;;;;;63.90;21.53;;;10.60;99.90;;;;;;5092617;28;20207;-68
2022/04/28 00:20:09;;;;;;;64.37;22.33;;;10.60;99.90;;;;;;5092581;28;20214;-67
2022/04/28 00:22:37;;;;;;;51.30;20.07;;;10.50;99.90;;;;;;5092379;28;20224;-69
2022/04/28 00:25:06;;;;;;;56.10;19.67;;;10.50;99.90;;;;;;5092526;28;20204;-68
2022/04/28 00:27:33;;;;;;;47.67;18.43;;;10.50;99.90;;;;;;5092809;28;20592;-68
2022/04/28 00:29:59;;;;;;;47.00;17.97;;;10.50;99.90;;;;;;5092915;28;20545;-67
2022/04/28 00:32:26;;;;;;;47.47;16.37;;;10.50;99.90;;;;;;5092493;28;20230;-69
2022/04/28 00:34:53;;;;;;;45.33;15.83;;;10.50;99.90;;;;;;5092589;28;20208;-68
2022/04/28 00:37:21;;;;;;;36.07;13.90;;;10.50;99.90;;;;;;5092048;28;20311;-68
2022/04/28 00:39:50;;;;;;;40.17;14.07;;;10.50;99.90;;;;;;5092602;28;20220;-67
2022/04/28 00:42:18;;;;;;;41.90;14.03;;;10.50;99.90;;;;;;5092420;28;20291;-67
2022/04/28 00:44:46;;;;;;;29.73;12.07;;;10.50;99.90;;;;;;5092482;28;20207;-67
2022/04/28 00:47:14;;;;;;;27.37;10.73;;;10.50;99.90;;;;;;5092360;28;20426;-67
2022/04/28 00:52:26;;;;;;;21.80;8.87;;;10.50;99.90;;;;;;5091973;28;20230;-67
2022/04/28 00:54:55;;;;;;;28.50;9.20;;;10.50;99.90;;;;;;5092245;28;20211;-67
2022/04/28 00:57:23;;;;;;;15.47;7.10;;;10.40;99.90;;;;;;5091937;28;20204;-67
2022/04/28 00:59:51;;;;;;;16.73;6.73;;;10.50;99.90;;;;;;5092191;28;20210;-67
2022/04/28 01:02:18;;;;;;;20.90;8.17;;;10.50;99.90;;;;;;5091791;28;20205;-67
2022/04/28 01:04:47;;;;;;;22.60;9.20;;;10.40;99.90;;;;;;5092251;28;20206;-67
2022/04/28 01:07:14;;;;;;;24.90;9.63;;;10.50;99.90;;;;;;5092012;28;20210;-67
2022/04/28 01:09:41;;;;;;;21.27;8.10;;;10.40;99.90;;;;;;5092414;28;20577;-67
2022/04/28 01:12:14;;;;;;;17.53;7.27;;;10.40;99.90;;;;;;5091801;28;20226;-67
2022/04/28 01:14:41;;;;;;;14.33;6.57;;;10.30;99.90;;;;;;5092067;28;20184;-66
2022/04/28 01:17:08;;;;;;;17.20;6.47;;;10.30;99.90;;;;;;5091747;28;20196;-67
2022/04/28 01:19:35;;;;;;;10.07;5.60;;;10.30;99.90;;;;;;5092229;28;20210;-66
2022/04/28 01:22:04;;;;;;;10.90;5.33;;;10.30;99.90;;;;;;5091848;28;20207;-67
2022/04/28 01:24:31;;;;;;;15.97;6.00;;;10.30;99.90;;;;;;5091445;28;20215;-67
2022/04/28 01:27:00;;;;;;;13.20;5.27;;;10.30;99.90;;;;;;5091618;28;20261;-67
2022/04/28 01:29:27;;;;;;;10.63;4.90;;;10.20;99.90;;;;;;5091335;28;20215;-67
2022/04/28 01:31:54;;;;;;;9.63;4.87;;;10.20;99.90;;;;;;5091317;28;20220;-67
2022/04/28 01:34:21;;;;;;;13.30;5.20;;;10.20;99.90;;;;;;5091563;28;20210;-67
2022/04/28 01:36:47;;;;;;;9.07;4.57;;;10.20;99.90;;;;;;5091669;28;20246;-68
2022/04/28 01:39:16;;;;;;;7.47;4.17;;;10.20;99.90;;;;;;5091482;28;20541;-67
2022/04/28 01:41:43;;;;;;;11.50;4.70;;;10.20;99.90;;;;;;5091351;28;20206;-67
2022/04/28 01:44:10;;;;;;;9.50;4.57;;;10.20;99.90;;;;;;5091499;28;20204;-68
2022/04/28 01:46:37;;;;;;;11.43;4.73;;;10.20;99.90;;;;;;5091366;28;20666;-67
2022/04/28 01:49:05;;;;;;;8.80;4.00;;;10.20;99.90;;;;;;5090582;28;20418;-67
2022/04/28 01:57:02;;;;;;;9.53;4.00;;;10.20;99.90;;;;;;5091323;28;20187;-67
2022/04/28 01:59:28;;;;;;;9.27;4.10;;;10.20;99.90;;;;;;5091368;28;20211;-68
2022/04/28 02:01:55;;;;;;;8.73;3.63;;;10.20;99.90;;;;;;5091148;28;20199;-67
2022/04/28 02:04:22;;;;;;;8.27;3.70;;;10.20;99.90;;;;;;5095321;28;20199;-68
2022/04/28 02:06:49;;;;;;;7.77;3.87;;;10.20;99.90;;;;;;5095322;28;20585;-67
2022/04/28 02:09:17;;;;;;;5.63;3.20;;;10.20;99.90;;;;;;5095249;28;20592;-67
2022/04/28 02:11:43;;;;;;;7.03;3.83;;;10.30;99.90;;;;;;5095313;28;20219;-68
2022/04/28 02:14:10;;;;;;;10.27;3.30;;;10.20;99.90;;;;;;5095002;28;20203;-67
2022/04/28 02:16:37;;;;;;;7.87;4.57;;;10.30;99.90;;;;;;5094992;28;20218;-68
2022/04/28 02:19:04;;;;;;;8.07;4.27;;;10.30;99.90;;;;;;5094713;28;20208;-66
2022/04/28 02:21:31;;;;;;;8.53;4.13;;;10.40;99.90;;;;;;5095087;28;20200;-67
2022/04/28 02:23:58;;;;;;;8.30;3.90;;;10.40;99.90;;;;;;5095119;28;20204;-67
2022/04/28 02:26:26;;;;;;;5.90;3.40;;;10.50;99.90;;;;;;5094680;28;20212;-67
2022/04/28 02:28:53;;;;;;;6.63;3.30;;;10.50;99.90;;;;;;5094879;28;20212;-69
2022/04/28 02:31:20;;;;;;;6.97;3.63;;;10.50;99.90;;;;;;5094785;28;20713;-68
2022/04/28 02:33:46;;;;;;;7.93;3.73;;;10.50;99.90;;;;;;5095037;28;20211;-67
2022/04/28 02:36:13;;;;;;;11.93;4.50;;;10.50;99.90;;;;;;5094620;28;20713;-68
2022/04/28 02:38:40;;;;;;;8.43;4.33;;;10.50;99.90;;;;;;5094593;28;20631;-68
2022/04/28 02:41:07;;;;;;;9.77;4.87;;;10.50;99.90;;;;;;5094629;28;20200;-67
2022/04/28 02:43:35;;;;;;;11.33;4.87;;;10.40;99.90;;;;;;5094785;28;20571;-67
2022/04/28 02:46:02;;;;;;;9.80;4.90;;;10.30;99.90;;;;;;5094609;28;20654;-68
2022/04/28 02:48:29;;;;;;;11.23;4.80;;;10.30;99.90;;;;;;5094738;28;20204;-67
2022/04/28 02:50:55;;;;;;;11.13;4.60;;;10.20;99.90;;;;;;5094242;28;20239;-67
2022/04/28 02:53:22;;;;;;;8.83;4.40;;;10.20;99.90;;;;;;5093980;28;20228;-67
2022/04/28 02:55:49;;;;;;;6.83;3.67;;;10.20;99.90;;;;;;5094547;28;20215;-68
2022/04/28 02:58:16;;;;;;;7.90;4.07;;;10.20;99.90;;;;;;5094022;28;20216;-67
2022/04/28 03:00:44;;;;;;;6.43;3.70;;;10.20;99.90;;;;;;5094493;28;20204;-68
2022/04/28 03:03:12;;;;;;;6.43;3.73;;;10.20;99.90;;;;;;5093930;28;20200;-67
2022/04/28 03:11:04;;;;;;;8.07;3.97;;;10.10;99.90;;;;;;5093903;28;20187;-67
2022/04/28 03:13:32;;;;;;;10.50;3.43;;;10.20;99.90;;;;;;5093563;28;20230;-68
2022/04/28 03:16:00;;;;;;;7.83;3.63;;;10.10;99.90;;;;;;5094052;28;20735;-67
2022/04/28 03:18:27;;;;;;;11.10;5.10;;;10.20;99.90;;;;;;5094095;28;20302;-67
2022/04/28 03:20:55;;;;;;;9.30;3.80;;;10.10;99.90;;;;;;5094055;28;20200;-67
2022/04/28 03:23:22;;;;;;;6.60;3.30;;;10.00;99.90;;;;;;5093747;28;20199;-66
2022/04/28 03:25:50;;;;;;;5.93;3.47;;;10.00;99.90;;;;;;5093763;28;20200;-67
2022/04/28 03:28:17;;;;;;;6.60;3.30;;;10.00;99.90;;;;;;5093459;28;20218;-67
2022/04/28 03:30:43;;;;;;;5.90;3.40;;;10.00;99.90;;;;;;5093667;28;20212;-67
2022/04/28 03:33:12;;;;;;;5.67;3.10;;;10.00;99.90;;;;;;5093376;28;20220;-67
2022/04/28 03:35:39;;;;;;;8.20;3.60;;;10.00;99.90;;;;;;5093738;28;20583;-68
2022/04/28 03:38:07;;;;;;;10.23;3.90;;;10.00;99.90;;;;;;5093686;28;20665;-67
2022/04/28 03:40:34;;;;;;;5.70;3.30;;;10.00;99.90;;;;;;5093743;28;20208;-67
2022/04/28 03:43:01;;;;;;;10.27;4.10;;;10.00;99.90;;;;;;5093335;28;20470;-67
2022/04/28 03:45:28;;;;;;;16.30;4.47;;;10.10;99.90;;;;;;5093558;28;20662;-67
2022/04/28 03:47:55;;;;;;;14.73;5.80;;;10.00;99.90;;;;;;5093106;28;20208;-66
2022/04/28 03:50:24;;;;;;;12.77;6.13;;;10.00;99.90;;;;;;5093308;28;20241;-68
2022/04/28 03:52:50;;;;;;;24.30;9.40;;;10.00;99.90;;;;;;5093424;28;20674;-68
2022/04/28 03:55:17;;;;;;;45.77;15.50;;;10.00;99.90;;;;;;5093244;28;20200;-67
2022/04/28 03:57:44;;;;;;;48.53;17.60;;;9.90;99.90;;;;;;5093076;28;20207;-67
2022/04/28 04:00:12;;;;;;;56.60;20.53;;;9.90;99.90;;;;;;5093212;28;20593;-69
2022/04/28 04:02:39;;;;;;;61.40;20.57;;;9.90;99.90;;;;;;5093222;28;20577;-69
2022/04/28 04:05:07;;;;;;;54.53;21.37;;;10.00;99.90;;;;;;5092763;28;20273;-68
2022/04/28 04:07:38;;;;;;;75.03;24.47;;;10.00;99.90;;;;;;5092886;28;20208;-67
2022/04/28 04:10:05;;;;;;;89.20;30.53;;;10.10;99.90;;;;;;5092841;28;20208;-68
2022/04/28 04:12:32;;;;;;;92.10;29.23;;;10.10;99.90;;;;;;5092572;28;20220;-66
2022/04/28 04:14:59;;;;;;;92.60;30.90;;;10.10;99.90;;;;;;5092822;28;20559;-67
2022/04/28 04:17:26;;;;;;;91.97;30.50;;;10.20;99.90;;;;;;5092977;28;20211;-67
2022/04/28 04:19:53;;;;;;;80.10;29.57;;;10.20;99.90;;;;;;5092687;28;20211;-67
2022/04/28 04:22:19;;;;;;;78.33;28.63;;;10.30;99.90;;;;;;5092699;28;20579;-67
2022/04/28 04:24:47;;;;;;;77.67;26.90;;;10.40;99.90;;;;;;5092402;28;20204;-68
2022/04/28 04:27:15;;;;;;;77.10;24.77;;;10.50;99.90;;;;;;5092396;28;20222;-68
2022/04/28 04:29:42;;;;;;;69.13;23.33;;;10.60;99.90;;;;;;5092740;28;20220;-69
2022/04/28 04:32:24;;;;;;;63.67;22.77;;;10.70;99.90;;;;;;5092362;28;20206;-68
2022/04/28 04:34:52;;;;;;;59.60;23.03;;;10.70;99.90;;;;;;5092549;28;20198;-68
2022/04/28 04:37:20;;;;;;;55.47;20.40;;;10.80;99.90;;;;;;5092524;28;20575;-68
2022/04/28 04:39:48;;;;;;;56.27;20.40;;;10.80;99.90;;;;;;5092027;28;20212;-67
2022/04/28 04:42:16;;;;;;;50.03;19.23;;;10.90;99.90;;;;;;5092045;28;20203;-67
2022/04/28 04:44:42;;;;;;;51.57;18.77;;;10.90;99.90;;;;;;5092487;28;20676;-68
2022/04/28 04:47:09;;;;;;;59.17;19.70;;;11.00;99.90;;;;;;5092290;28;20557;-69
2022/04/28 04:49:36;;;;;;;52.93;18.60;;;11.00;99.90;;;;;;5092271;28;20210;-69
2022/04/28 04:52:03;;;;;;;50.00;18.03;;;11.00;99.90;;;;;;5091589;28;20240;-67
2022/04/28 04:54:30;;;;;;;45.17;17.40;;;11.10;99.90;;;;;;5092205;28;20564;-69
2022/04/28 04:56:58;;;;;;;42.00;17.37;;;11.10;99.90;;;;;;5091866;28;20204;-67
2022/04/28 04:59:25;;;;;;;42.93;16.17;;;11.20;99.90;;;;;;5091989;28;20207;-68
2022/04/28 05:01:52;;;;;;;43.67;16.33;;;11.30;99.90;;;;;;5091480;28;20242;-67
2022/04/28 05:04:18;;;;;;;40.37;15.20;;;11.40;99.90;;;;;;5091712;28;20210;-68
2022/04/28 05:06:45;;;;;;;40.83;15.20;;;11.40;99.90;;;;;;5091830;28;20200;-67
2022/04/28 05:09:12;;;;;;;34.93;14.93;;;11.50;99.90;;;;;;5092007;28;20215;-66
2022/04/28 05:11:39;;;;;;;31.93;13.60;;;11.60;99.90;;;;;;5091636;28;20218;-68
2022/04/28 05:14:07;;;;;;;33.53;12.33;;;11.70;99.90;;;;;;5092053;28;20291;-68
2022/04/28 05:16:34;;;;;;;37.10;13.40;;;11.70;99.90;;;;;;5091721;28;20208;-69
2022/04/28 05:19:00;;;;;;;32.90;12.07;;;11.80;99.90;;;;;;5091771;28;20261;-67
2022/04/28 05:21:27;;;;;;;29.67;11.53;;;11.90;99.90;;;;;;5091895;28;20211;-68
2022/04/28 05:23:54;;;;;;;28.40;11.57;;;12.00;99.90;;;;;;5092068;28;20676;-68
2022/04/28 05:26:21;;;;;;;29.80;12.27;;;12.10;99.90;;;;;;5091850;28;20210;-67
2022/04/28 05:28:48;;;;;;;32.70;12.63;;;12.10;99.90;;;;;;5091457;28;20207;-67
2022/04/28 05:31:16;;;;;;;33.40;13.00;;;12.10;99.90;;;;;;5091789;28;20658;-67
2022/04/28 05:33:43;;;;;;;28.37;11.87;;;12.20;99.90;;;;;;5091580;28;20226;-68
2022/04/28 05:36:10;;;;;;;38.47;14.10;;;12.20;99.90;;;;;;5092253;28;20223;-68
2022/04/28 05:38:37;;;;;;;40.80;14.53;;;12.20;99.90;;;;;;5095629;28;20219;-68
2022/04/28 05:41:05;;;;;;;43.20;16.60;;;12.10;99.90;;;;;;5095587;28;20211;-69
2022/04/28 05:46:17;;;;;;;47.93;15.97;;;12.10;99.90;;;;;;5095767;28;20237;-67
2022/04/28 05:48:44;;;;;;;38.67;14.37;;;12.10;99.90;;;;;;5095300;28;20211;-68
2022/04/28 05:51:12;;;;;;;32.47;13.07;;;12.20;99.90;;;;;;5095205;28;20521;-67
2022/04/28 05:53:39;;;;;;;30.63;12.23;;;12.30;99.90;;;;;;5095214;28;20234;-68
2022/04/28 05:56:06;;;;;;;21.90;9.40;;;12.40;99.90;;;;;;5095705;28;20738;-68
2022/04/28 05:58:33;;;;;;;22.23;9.23;;;12.50;99.90;;;;;;5095700;28;20678;-67
2022/04/28 06:01:00;;;;;;;19.93;7.47;;;12.70;99.90;;;;;;5095604;28;20260;-68
2022/04/28 06:03:28;;;;;;;18.37;7.00;;;12.80;99.90;;;;;;5095505;28;20204;-69
2022/04/28 06:05:55;;;;;;;16.50;6.97;;;12.90;99.90;;;;;;5095000;28;20211;-68
2022/04/28 06:08:22;;;;;;;17.97;7.27;;;13.00;99.90;;;;;;5095384;28;20207;-67
2022/04/28 06:10:49;;;;;;;11.10;5.07;;;13.10;99.90;;;;;;5095268;28;20200;-71
2022/04/28 06:13:16;;;;;;;9.37;5.03;;;13.20;99.90;;;;;;5095192;28;20220;-68
2022/04/28 06:15:42;;;;;;;11.83;5.63;;;13.30;99.90;;;;;;5094837;28;20210;-67
2022/04/28 06:18:09;;;;;;;9.40;4.70;;;13.30;99.30;;;;;;5095153;28;20212;-68
2022/04/28 06:20:37;;;;;;;7.97;4.13;;;13.40;99.20;;;;;;5095138;28;20689;-68
2022/04/28 06:23:04;;;;;;;7.70;3.77;;;13.60;98.90;;;;;;5095479;28;20202;-70
2022/04/28 06:25:32;;;;;;;8.20;4.20;;;13.60;97.80;;;;;;5094968;28;20207;-69
2022/04/28 06:27:58;;;;;;;9.60;4.00;;;13.70;98.00;;;;;;5095110;28;20207;-68
2022/04/28 06:30:25;;;;;;;10.00;4.23;;;13.80;98.20;;;;;;5094783;28;20207;-68
2022/04/28 06:32:52;;;;;;;8.27;4.20;;;13.90;97.90;;;;;;5094669;28;20234;-67
2022/04/28 06:35:19;;;;;;;8.30;4.20;;;14.00;97.00;;;;;;5094782;28;20224;-67
2022/04/28 06:37:47;;;;;;;7.83;3.40;;;14.10;96.60;;;;;;5094716;28;20204;-67
2022/04/28 06:40:14;;;;;;;3.73;2.30;;;14.20;95.00;;;;;;5094535;28;20207;-68
2022/04/28 06:42:43;;;;;;;3.87;2.00;;;14.40;93.30;;;;;;5094603;28;20204;-67
2022/04/28 06:45:11;;;;;;;2.90;1.90;;;14.50;92.40;;;;;;5094863;28;20200;-68
2022/04/28 06:47:38;;;;;;;2.57;1.60;;;14.60;91.40;;;;;;5094113;28;20229;-67
2022/04/28 06:50:06;;;;;;;4.33;2.77;;;14.70;89.20;;;;;;5093836;28;20211;-69
2022/04/28 06:52:35;;;;;;;4.13;2.10;;;14.60;88.50;;;;;;5094386;28;20202;-68
2022/04/28 06:55:03;;;;;;;3.50;2.00;;;14.70;90.60;;;;;;5094576;28;20669;-69
2022/04/28 06:57:30;;;;;;;4.37;2.20;;;14.70;90.70;;;;;;5094284;28;20565;-68
2022/04/28 06:59:57;;;;;;;4.03;2.13;;;14.70;90.90;;;;;;5094333;28;20568;-68
2022/04/28 07:02:24;;;;;;;8.43;2.70;;;14.70;91.20;;;;;;5094062;28;20204;-70
2022/04/28 07:04:51;;;;;;;5.40;2.63;;;14.70;91.80;;;;;;5094441;28;20200;-68
2022/04/28 07:07:18;;;;;;;6.77;2.80;;;14.70;92.10;;;;;;5094355;28;20230;-68
2022/04/28 07:09:45;;;;;;;5.80;2.47;;;14.90;92.40;;;;;;5094128;28;20211;-66
2022/04/28 07:12:13;;;;;;;5.60;2.83;;;14.90;92.40;;;;;;5094150;28;20207;-68
2022/04/28 07:14:40;;;;;;;7.73;4.40;;;14.90;92.60;;;;;;5094074;28;20224;-68
2022/04/28 07:17:07;;;;;;;9.87;4.30;;;14.90;92.90;;;;;;5094263;28;20215;-67
2022/04/28 07:19:34;;;;;;;5.87;3.17;;;15.00;93.30;;;;;;5093596;28;20306;-68
2022/04/28 07:22:05;;;;;;;4.77;2.90;;;15.00;93.20;;;;;;5094042;28;20544;-68
2022/04/28 07:24:31;;;;;;;5.63;2.57;;;15.00;92.60;;;;;;5093833;28;20586;-67
2022/04/28 07:26:58;;;;;;;5.77;3.00;;;15.00;92.70;;;;;;5093707;28;20200;-68
2022/04/28 07:29:27;;;;;;;4.97;2.80;;;15.10;92.50;;;;;;5093880;28;20299;-68
2022/04/28 07:31:53;;;;;;;4.73;2.60;;;15.00;91.80;;;;;;5093604;28;20208;-67
2022/04/28 07:34:20;;;;;;;5.00;2.93;;;15.00;91.80;;;;;;5093342;28;20220;-69
2022/04/28 07:36:47;;;;;;;8.10;3.53;;;15.10;92.00;;;;;;5093675;28;20572;-68
2022/04/28 07:39:14;;;;;;;7.20;3.40;;;15.10;92.00;;;;;;5093330;28;20208;-68
2022/04/28 07:41:41;;;;;;;6.93;3.27;;;15.10;92.20;;;;;;5093497;28;20200;-67
2022/04/28 07:44:07;;;;;;;6.03;2.87;;;15.20;92.20;;;;;;5093380;28;20195;-68
2022/04/28 07:46:37;;;;;;;8.73;3.00;;;15.20;92.10;;;;;;5093172;28;20231;-68
2022/04/28 07:49:04;;;;;;;3.97;2.30;;;15.20;91.30;;;;;;5093183;28;20278;-69
2022/04/28 07:51:31;;;;;;;4.03;2.00;;;15.20;90.70;;;;;;5092846;28;20263;-69
2022/04/28 07:53:57;;;;;;;4.13;1.90;;;15.20;90.10;;;;;;5093308;28;20224;-67
2022/04/28 07:56:24;;;;;;;2.83;1.87;;;15.20;89.10;;;;;;5093267;28;20215;-68
2022/04/28 07:58:51;;;;;;;4.10;2.00;;;15.30;89.20;;;;;;5093347;28;20204;-68
2022/04/28 08:01:18;;;;;;;7.33;2.63;;;15.30;89.20;;;;;;5091787;28;20637;-67
2022/04/28 08:03:46;;;;;;;5.23;1.70;;;15.40;88.60;;;;;;5092957;28;20297;-67
2022/04/28 08:06:13;;;;;;;4.77;2.40;;;15.40;87.40;;;;;;5092798;28;20241;-68
2022/04/28 08:08:41;;;;;;;6.23;2.67;;;15.40;88.20;;;;;;5092965;28;20576;-69
2022/04/28 08:11:08;;;;;;;7.97;2.43;;;15.50;87.90;;;;;;5093157;28;20211;-68
2022/04/28 08:13:35;;;;;;;6.60;2.43;;;15.50;87.80;;;;;;5092485;28;20220;-69
2022/04/28 08:16:03;;;;;;;4.80;2.90;;;15.50;90.00;;;;;;5093008;28;20662;-67
2022/04/28 08:18:30;;;;;;;9.43;3.53;;;15.70;88.40;;;;;;5092811;28;20680;-68
2022/04/28 08:21:01;;;;;;;7.67;3.27;;;15.70;87.80;;;;;;5092785;28;20290;-69
2022/04/28 08:23:28;;;;;;;5.97;3.10;;;15.70;86.00;;;;;;5092748;28;20624;-67
2022/04/28 08:25:55;;;;;;;7.47;3.27;;;15.80;85.80;;;;;;5092775;28;20204;-67
2022/04/28 08:28:22;;;;;;;7.00;3.50;;;15.90;86.80;;;;;;5092524;28;20218;-70
2022/04/28 08:30:49;;;;;;;7.10;3.03;;;15.90;86.10;;;;;;5093154;28;20206;-68
2022/04/28 08:33:15;;;;;;;4.33;2.70;;;15.90;84.10;;;;;;5092520;28;20726;-68
2022/04/28 08:35:42;;;;;;;5.67;2.37;;;15.90;84.30;;;;;;5092668;28;20667;-69
2022/04/28 08:38:10;;;;;;;5.83;2.30;;;15.90;83.40;;;;;;5092616;28;20208;-67
2022/04/28 08:40:38;;;;;;;2.93;1.77;;;16.00;84.90;;;;;;5092218;28;20303;-69
2022/04/28 08:43:06;;;;;;;3.37;1.80;;;16.10;83.60;;;;;;5092138;28;20249;-67
2022/04/28 08:46:50;;;;;;;5.83;1.97;;;16.10;83.20;;;;;;5092476;28;20204;-68
2022/04/28 08:48:28;;;;;;;4.27;2.20;;;16.10;82.30;;;;;;5091900;28;20682;-68
2022/04/28 08:50:57;;;;;;;4.27;2.30;;;16.00;82.60;;;;;;5091884;28;20777;-68
2022/04/28 08:53:25;;;;;;;4.33;2.30;;;15.90;81.90;;;;;;5091742;28;20215;-68
2022/04/28 08:55:57;;;;;;;7.20;2.70;;;15.90;82.80;;;;;;5092248;28;20207;-66
2022/04/28 08:58:24;;;;;;;28.13;3.03;;;15.80;82.80;;;;;;5091908;28;20199;-68
2022/04/28 09:00:52;;;;;;;7.63;3.43;;;15.70;83.20;;;;;;5092057;28;20235;-67
2022/04/28 09:03:19;;;;;;;9.33;3.90;;;15.70;84.20;;;;;;5091899;28;20208;-70
2022/04/28 09:05:48;;;;;;;9.57;3.77;;;15.70;84.30;;;;;;5092212;28;20245;-68
2022/04/28 09:08:17;;;;;;;12.37;3.77;;;15.70;84.50;;;;;;5092033;28;20257;-69
2022/04/28 09:10:46;;;;;;;6.20;2.93;;;15.70;84.50;;;;;;5091928;28;20481;-68
2022/04/28 09:15:57;;;;;;;8.43;3.87;;;15.80;84.10;;;;;;5091956;28;20669;-69
2022/04/28 09:18:25;;;;;;;10.10;3.87;;;15.70;84.20;;;;;;5091773;28;20223;-68
2022/04/28 09:20:52;;;;;;;9.50;3.50;;;15.80;84.30;;;;;;5091619;28;20212;-68
2022/04/28 09:23:19;;;;;;;6.40;3.33;;;15.90;84.70;;;;;;5091316;28;20200;-69
2022/04/28 09:25:47;;;;;;;7.47;3.30;;;16.00;84.50;;;;;;5091562;28;20196;-68
2022/04/28 09:28:14;;;;;;;9.90;3.77;;;16.00;84.10;;;;;;5091681;28;20208;-68
2022/04/28 09:30:45;;;;;;;7.57;3.53;;;16.10;84.90;;;;;;5091528;28;20309;-69
2022/04/28 09:33:13;;;;;;;9.00;3.30;;;16.10;83.30;;;;;;5091287;28;20246;-68
2022/04/28 09:35:46;;;;;;;7.57;3.00;;;16.10;83.70;;;;;;5091161;28;20231;-67
2022/04/28 09:38:13;;;;;;;5.53;3.13;;;16.10;83.70;;;;;;5091252;28;20238;-68
2022/04/28 09:43:25;;;;;;;5.00;3.07;;;16.10;85.40;;;;;;5091396;28;20202;-68
2022/04/28 09:45:52;;;;;;;7.03;3.03;;;16.20;85.70;;;;;;5091663;28;20200;-68
2022/04/28 09:48:20;;;;;;;12.47;3.60;;;16.10;83.80;;;;;;5091189;28;20350;-69
2022/04/28 09:50:47;;;;;;;5.63;2.57;;;16.20;84.90;;;;;;5091291;28;20603;-68
2022/04/28 09:53:15;;;;;;;4.93;2.60;;;16.30;85.00;;;;;;5091464;28;20204;-67
2022/04/28 09:55:45;;;;;;;3.27;2.00;;;16.40;84.20;;;;;;5091449;28;20216;-69
2022/04/28 09:58:14;;;;;;;2.63;1.83;;;16.40;81.20;;;;;;5091358;28;20680;-68
2022/04/28 10:00:43;;;;;;;6.23;2.17;;;16.40;82.70;;;;;;5091482;28;20208;-68
2022/04/28 10:03:11;;;;;;;4.00;2.00;;;16.50;84.90;;;;;;5091159;28;20200;-68
2022/04/28 10:05:38;;;;;;;3.30;2.10;;;16.60;83.80;;;;;;5091493;28;20200;-68
2022/04/28 10:08:06;;;;;;;2.90;1.83;;;16.70;83.60;;;;;;5091009;28;20298;-67
2022/04/28 10:10:36;;;;;;;1.50;1.40;;;16.80;83.80;;;;;;5091506;28;20204;-70
2022/04/28 10:13:02;;;;;;;3.57;1.60;;;16.90;80.30;;;;;;5090775;28;20212;-68
2022/04/28 10:15:32;;;;;;;2.80;1.30;;;17.00;81.50;;;;;;5091166;28;20577;-67
2022/04/28 10:18:05;;;;;;;1.83;1.40;;;17.20;81.30;;;;;;5091286;28;20231;-68
2022/04/28 10:20:35;;;;;;;1.67;1.33;;;17.30;79.60;;;;;;5091077;28;20185;-68
2022/04/28 10:23:06;;;;;;;2.93;1.40;;;17.20;78.10;;;;;;5091143;28;20192;-68
2022/04/28 10:34:17;;;;;;;4.07;1.70;;;16.80;79.80;;;;;;5094734;28;20234;-69
2022/04/28 10:36:55;;;;;;;2.40;1.40;;;16.80;79.60;;;;;;5094912;28;20192;-68
2022/04/28 10:39:40;;;;;;;1.53;1.30;;;16.80;79.60;;;;;;5094679;28;20214;-68
2022/04/28 10:42:15;;;;;;;1.27;1.17;;;16.90;78.60;;;;;;5094943;28;20200;-69
2022/04/28 10:44:51;;;;;;;2.07;1.53;;;16.90;76.90;;;;;;5094609;28;20197;-68
2022/04/28 10:47:23;;;;;;;1.67;1.20;;;17.00;78.10;;;;;;5095057;28;20189;-67
2022/04/28 10:49:54;;;;;;;2.00;1.50;;;17.20;78.40;;;;;;5094754;28;20239;-68
2022/04/28 10:52:22;;;;;;;1.50;1.40;;;17.30;76.00;;;;;;5094326;28;20335;-69
2022/04/28 10:54:52;;;;;;;1.87;1.40;;;17.30;77.50;;;;;;5094790;28;20684;-68
2022/04/28 10:57:27;;;;;;;1.60;1.40;;;17.40;76.50;;;;;;5094695;28;20200;-68
2022/04/28 10:59:54;;;;;;;1.87;1.40;;;17.50;75.20;;;;;;5094379;28;20189;-68
2022/04/28 11:02:59;;;;;;;1.57;1.30;;;17.40;76.60;;;;;;5094149;28;20204;-69
2022/04/28 11:05:37;;;;;;;1.33;1.20;;;17.60;78.00;;;;;;5094237;28;20204;-69
2022/04/28 11:08:05;;;;;;;1.57;1.37;;;17.70;76.50;;;;;;5094020;28;20188;-68
2022/04/28 11:10:31;;;;;;;2.53;1.50;;;17.70;75.00;;;;;;5094353;28;20575;-68
2022/04/28 11:13:09;;;;;;;1.40;1.30;;;17.70;73.80;;;;;;5094175;28;20226;-70
2022/04/28 11:15:37;;;;;;;1.40;1.27;;;17.70;73.50;;;;;;5093810;28;20266;-69
2022/04/28 11:18:04;;;;;;;1.57;1.37;;;17.60;73.40;;;;;;5094038;28;20204;-70
2022/04/28 11:20:32;;;;;;;1.40;1.30;;;17.50;73.70;;;;;;5094056;28;20618;-68
2022/04/28 11:23:02;;;;;;;4.63;1.80;;;17.50;74.50;;;;;;5093733;28;20560;-68
2022/04/28 11:25:28;;;;;;;2.60;1.60;;;17.50;75.50;;;;;;5094012;28;20200;-70
2022/04/28 11:27:57;;;;;;;2.03;1.57;;;17.50;76.30;;;;;;5093413;28;20212;-69
2022/04/28 11:30:25;;;;;;;2.80;1.50;;;17.50;75.20;;;;;;5093967;28;20208;-69
2022/04/28 11:32:57;;;;;;;5.70;1.90;;;17.60;75.20;;;;;;5093497;28;20209;-68
2022/04/28 11:35:30;;;;;;;3.07;1.50;;;17.60;75.10;;;;;;5093565;28;20759;-67
2022/04/28 11:37:57;;;;;;;1.50;1.40;;;17.60;75.60;;;;;;5093409;28;20185;-71
2022/04/28 11:40:25;;;;;;;1.67;1.27;;;17.70;76.20;;;;;;5093837;28;20233;-69
2022/04/28 11:42:57;;;;;;;2.47;1.90;;;17.80;76.30;;;;;;5093575;28;20662;-67
2022/04/28 11:45:25;;;;;;;1.50;1.40;;;17.90;76.80;;;;;;5093705;28;20189;-68
2022/04/28 11:47:53;;;;;;;1.73;1.33;;;17.90;75.10;;;;;;5093513;28;20277;-70
2022/04/28 11:50:21;;;;;;;2.43;1.40;;;18.00;75.20;;;;;;5093316;28;20325;-69
2022/04/28 11:52:59;;;;;;;1.67;1.43;;;18.10;75.70;;;;;;5093323;28;20625;-70
2022/04/28 11:55:29;;;;;;;2.73;1.30;;;18.20;76.10;;;;;;5093137;28;20218;-69
2022/04/28 11:57:56;;;;;;;3.53;1.70;;;18.30;74.90;;;;;;5093296;28;20701;-69
2022/04/28 12:00:25;;;;;;;1.87;1.50;;;18.40;74.30;;;;;;5093392;28;20588;-67
2022/04/28 12:02:53;;;;;;;2.27;1.60;;;18.30;74.90;;;;;;5093535;28;20207;-69
2022/04/28 12:05:22;;;;;;;2.20;1.60;;;18.20;75.50;;;;;;5093380;28;20253;-69
2022/04/28 12:07:52;;;;;;;2.53;1.53;;;18.20;74.40;;;;;;5092760;28;20257;-69
2022/04/28 12:15:58;;;;;;;2.83;1.60;;;17.80;75.80;;;;;;5092810;28;20256;-69
2022/04/28 12:21:18;;;;;;;4.97;1.60;;;17.80;75.70;;;;;;5092805;28;20182;-69
2022/04/28 12:23:48;;;;;;;1.87;1.70;;;17.70;74.30;;;;;;5092712;28;20209;-69
2022/04/28 12:26:18;;;;;;;3.57;1.63;;;17.60;74.90;;;;;;5092789;28;20190;-68
2022/04/28 12:28:45;;;;;;;4.77;1.77;;;17.60;75.40;;;;;;5092326;28;20247;-68
2022/04/28 12:31:13;;;;;;;2.20;1.60;;;17.60;75.80;;;;;;5092851;28;20200;-69
2022/04/28 12:33:41;;;;;;;2.23;1.50;;;17.60;76.30;;;;;;5092647;28;20201;-68
2022/04/28 12:36:13;;;;;;;2.47;1.43;;;17.70;75.40;;;;;;5092522;28;20226;-69
2022/04/28 12:38:44;;;;;;;1.60;1.50;;;17.60;74.40;;;;;;5092816;28;20598;-68
2022/04/28 12:41:17;;;;;;;2.70;1.77;;;17.60;75.00;;;;;;5092311;28;20231;-69
2022/04/28 12:43:48;;;;;;;4.47;1.80;;;17.70;75.60;;;;;;5092435;28;20199;-68
2022/04/28 12:46:16;;;;;;;3.20;1.60;;;17.70;74.70;;;;;;5092041;28;20220;-68
2022/04/28 12:48:42;;;;;;;2.10;1.60;;;17.80;74.40;;;;;;5092306;28;20564;-68
2022/04/28 12:51:15;;;;;;;2.30;1.50;;;17.70;74.20;;;;;;5092151;28;20234;-67
2022/04/28 12:53:44;;;;;;;7.70;1.87;;;17.60;73.80;;;;;;5092428;28;20194;-69
2022/04/28 12:56:13;;;;;;;3.30;1.60;;;17.50;74.10;;;;;;5091903;28;20232;-69
2022/04/28 12:58:43;;;;;;;3.20;1.93;;;17.50;73.90;;;;;;5092167;28;20220;-68
2022/04/28 13:01:11;;;;;;;1.70;1.50;;;17.50;75.00;;;;;;5092281;28;20530;-67
2022/04/28 13:03:40;;;;;;;2.63;1.50;;;17.50;73.70;;;;;;5091865;28;20205;-68
2022/04/28 13:06:08;;;;;;;2.80;1.60;;;17.40;74.30;;;;;;5092217;28;20204;-70
2022/04/28 13:08:35;;;;;;;2.60;1.70;;;17.30;74.30;;;;;;5092042;28;20695;-70
2022/04/28 13:11:03;;;;;;;2.37;1.47;;;17.40;73.70;;;;;;5091015;28;20196;-70
2022/04/28 13:13:30;;;;;;;5.30;1.63;;;17.40;74.20;;;;;;5091154;28;20213;-67
2022/04/28 13:15:58;;;;;;;3.70;1.70;;;17.40;74.80;;;;;;5090439;28;20230;-65
2022/04/28 13:18:25;;;;;;;3.97;1.60;;;17.50;75.10;;;;;;5086834;28;20571;-67
2022/04/28 13:20:52;;;;;;;3.30;1.50;;;17.50;74.60;;;;;;5090681;28;20206;-65
2022/04/28 13:23:18;;;;;;;1.80;1.33;;;17.60;73.70;;;;;;5085603;28;20231;-64